createdAt,value
2022-10-02T00:02:43.809Z,2.92
2022-10-02T00:07:04.451Z,2.97
2022-10-02T00:11:23.257Z,2.93
2022-10-02T00:15:41.736Z,3.00
2022-10-02T00:19:57.604Z,3.22
2022-10-02T00:24:16.952Z,2.58
2022-10-02T00:28:36.771Z,3.00
2022-10-02T00:33:05.002Z,3.10
2022-10-02T00:37:28.638Z,2.67
2022-10-02T00:42:29.367Z,2.73
2022-10-02T00:46:51.438Z,3.08
2022-10-02T00:51:15.870Z,3.00
2022-10-02T00:55:45.276Z,2.87
2022-10-02T01:00:07.466Z,3.40
2022-10-02T01:04:29.672Z,2.90
2022-10-02T01:08:43.552Z,3.22
2022-10-02T01:12:59.233Z,3.07
2022-10-02T01:17:24.505Z,3.10
2022-10-02T01:21:43.501Z,3.38
2022-10-02T01:25:59.381Z,3.30
2022-10-02T01:30:17.638Z,3.35
2022-10-02T01:34:33.898Z,3.35
2022-10-02T01:38:49.025Z,3.50
2022-10-02T01:43:07.203Z,3.30
2022-10-02T01:47:27.350Z,3.47
2022-10-02T01:52:03.676Z,3.25
2022-10-02T01:56:24.095Z,3.00
2022-10-02T02:00:52.955Z,3.00
2022-10-02T02:05:11.364Z,3.00
2022-10-02T02:09:33.873Z,2.80
2022-10-02T02:13:50.525Z,2.75
2022-10-02T02:18:13.417Z,2.92
2022-10-02T02:22:31.114Z,2.70
2022-10-02T02:26:47.156Z,2.72
2022-10-02T02:31:03.029Z,3.08
2022-10-02T02:35:21.922Z,2.95
2022-10-02T02:39:40.636Z,3.10
2022-10-02T02:44:00.263Z,2.85
2022-10-02T02:48:20.490Z,2.58
2022-10-02T02:52:40.486Z,2.67
2022-10-02T02:56:57.590Z,2.80
2022-10-02T03:01:11.674Z,2.58
2022-10-02T03:05:26.267Z,3.20
2022-10-02T03:09:42.650Z,3.05
2022-10-02T03:14:03.423Z,2.90
2022-10-02T03:18:40.149Z,3.20
2022-10-02T03:23:02.204Z,2.90
2022-10-02T03:27:24.045Z,2.60
2022-10-02T03:31:38.127Z,2.80
2022-10-02T03:35:52.286Z,3.00
2022-10-02T03:40:08.395Z,2.70
2022-10-02T03:44:23.614Z,2.90
2022-10-02T03:48:37.618Z,2.70
2022-10-02T03:52:53.873Z,3.03
2022-10-02T03:57:12.616Z,3.20
2022-10-02T04:01:33.183Z,2.83
2022-10-02T04:05:52.696Z,2.73
2022-10-02T04:10:27.024Z,2.88
2022-10-02T04:14:48.402Z,2.92
2022-10-02T04:19:08.615Z,4.27
2022-10-02T04:23:27.083Z,2.95
2022-10-02T04:27:43.086Z,3.03
2022-10-02T04:32:08.439Z,2.80
2022-10-02T04:36:42.169Z,3.25
2022-10-02T04:41:06.844Z,2.90
2022-10-02T04:45:38.033Z,3.20
2022-10-02T04:50:06.873Z,2.97
2022-10-02T04:54:45.770Z,3.15
2022-10-02T04:59:20.557Z,2.97
2022-10-02T05:03:50.434Z,3.33
2022-10-02T05:08:23.507Z,3.38
2022-10-02T05:12:59.529Z,3.42
2022-10-02T05:17:30.010Z,3.33
2022-10-02T05:22:14.850Z,3.78
2022-10-02T05:26:46.299Z,3.40
2022-10-02T05:31:14.449Z,3.58
2022-10-02T05:35:49.737Z,3.80
2022-10-02T05:40:10.969Z,3.97
2022-10-02T05:44:30.943Z,3.72
2022-10-02T05:48:50.233Z,4.03
2022-10-02T05:53:10.168Z,4.28
2022-10-02T05:57:32.043Z,4.28
2022-10-02T06:01:48.276Z,4.37
2022-10-02T06:06:11.573Z,4.70
2022-10-02T06:10:31.565Z,4.22
2022-10-02T06:14:51.916Z,4.32
2022-10-02T06:19:12.335Z,4.17
2022-10-02T06:23:32.598Z,4.78
2022-10-02T06:27:51.998Z,4.32
2022-10-02T06:32:17.938Z,4.50
2022-10-02T06:37:04.529Z,3.92
2022-10-02T06:41:29.413Z,3.50
2022-10-02T06:45:53.172Z,2.93
2022-10-02T06:50:24.714Z,2.75
2022-10-02T06:54:55.051Z,3.05
2022-10-02T06:59:25.600Z,2.97
2022-10-02T07:04:15.040Z,2.70
2022-10-02T07:08:45.771Z,2.72
2022-10-02T07:13:27.125Z,2.70
2022-10-02T07:17:54.075Z,2.73
2022-10-02T07:22:43.798Z,2.72
2022-10-02T07:27:04.350Z,2.80
2022-10-02T07:31:25.427Z,3.37
2022-10-02T07:35:46.632Z,3.08
2022-10-02T07:40:18.315Z,2.70
2022-10-02T07:44:53.251Z,2.75
2022-10-02T07:49:23.124Z,2.37
2022-10-02T07:53:41.406Z,2.45
2022-10-02T07:58:01.694Z,2.30
2022-10-02T08:02:25.216Z,2.17
2022-10-02T08:06:39.947Z,2.75
2022-10-02T08:11:02.790Z,3.00
2022-10-02T08:15:21.226Z,2.70
2022-10-02T08:19:40.557Z,2.70
2022-10-02T08:23:59.952Z,2.70
2022-10-02T08:28:21.086Z,2.72
2022-10-02T08:32:37.849Z,2.80
2022-10-02T08:37:19.492Z,2.50
2022-10-02T08:42:05.084Z,3.47
2022-10-02T08:47:04.123Z,2.40
2022-10-02T08:52:05.973Z,2.55
2022-10-02T08:56:32.027Z,3.20
2022-10-02T09:00:58.949Z,2.80
2022-10-02T09:05:48.530Z,2.70
2022-10-02T09:10:50.427Z,2.95
2022-10-02T09:15:17.274Z,2.50
2022-10-02T09:19:42.671Z,2.50
2022-10-02T09:24:27.452Z,2.65
2022-10-02T09:29:10.713Z,2.55
2022-10-02T09:34:01.859Z,2.60
2022-10-02T09:38:42.207Z,2.88
2022-10-02T09:43:52.263Z,2.80
2022-10-02T09:48:51.672Z,2.70
2022-10-02T09:53:38.316Z,2.75
2022-10-02T09:58:24.507Z,2.83
2022-10-02T10:03:11.821Z,2.50
2022-10-02T10:08:00.353Z,2.80
2022-10-02T10:12:56.069Z,2.22
2022-10-02T10:18:00.535Z,2.55
2022-10-02T10:22:43.792Z,2.33
2022-10-02T10:27:38.946Z,2.50
2022-10-02T10:32:32.028Z,2.38
2022-10-02T10:37:15.212Z,2.50
2022-10-02T10:41:55.970Z,2.67
2022-10-02T10:46:26.431Z,2.50
2022-10-02T10:51:00.492Z,2.13
2022-10-02T10:55:20.361Z,2.00
2022-10-02T11:00:10.141Z,2.15
2022-10-02T11:04:45.895Z,2.30
2022-10-02T11:09:26.824Z,2.40
2022-10-02T11:13:57.652Z,2.67
2022-10-02T11:18:44.430Z,2.00
2022-10-02T11:23:37.158Z,2.50
2022-10-02T11:28:37.529Z,2.35
2022-10-02T11:33:25.065Z,2.47
2022-10-02T11:38:04.256Z,2.53
2022-10-02T11:42:56.069Z,2.70
2022-10-02T11:47:28.809Z,2.58
2022-10-02T11:52:11.676Z,2.80
2022-10-02T11:56:47.141Z,2.57
2022-10-02T12:01:14.997Z,3.22
2022-10-02T12:05:48.634Z,2.63
2022-10-02T12:10:27.747Z,2.77
2022-10-02T12:14:49.754Z,2.97
2022-10-02T12:19:20.925Z,2.85
2022-10-02T12:24:06.582Z,3.00
2022-10-02T12:28:33.468Z,2.67
2022-10-02T12:32:58.354Z,3.03
2022-10-02T12:37:19.671Z,2.92
2022-10-02T12:41:53.682Z,2.57
2022-10-02T12:46:29.351Z,2.70
2022-10-02T12:51:17.207Z,2.67
2022-10-02T12:56:04.681Z,3.10
2022-10-02T13:00:21.536Z,2.47
2022-10-02T13:05:14.268Z,2.70
2022-10-02T13:09:39.966Z,2.83
2022-10-02T13:14:26.424Z,2.67
2022-10-02T13:19:03.430Z,2.95
2022-10-02T13:23:26.132Z,2.80
2022-10-02T13:27:49.608Z,2.90
2022-10-02T13:32:20.060Z,2.50
2022-10-02T13:36:45.862Z,2.78
2022-10-02T13:41:14.398Z,2.77
2022-10-02T13:45:35.168Z,2.80
2022-10-02T13:50:06.054Z,3.00
2022-10-02T13:54:44.422Z,3.17
2022-10-02T13:59:14.687Z,2.80
2022-10-02T14:03:43.364Z,3.00
2022-10-02T14:08:16.633Z,3.17
2022-10-02T14:12:42.030Z,2.73
2022-10-02T14:17:05.007Z,2.70
2022-10-02T14:21:31.504Z,2.83
2022-10-02T14:26:00.244Z,2.80
2022-10-02T14:30:20.575Z,2.55
2022-10-02T14:34:53.252Z,3.30
2022-10-02T14:39:24.560Z,2.53
2022-10-02T14:44:11.184Z,2.60
2022-10-02T14:48:49.563Z,2.90
2022-10-02T14:53:43.872Z,2.70
2022-10-02T14:58:18.578Z,3.40
2022-10-02T15:02:59.771Z,3.08
2022-10-02T15:07:15.692Z,2.92
2022-10-02T15:11:55.254Z,3.13
2022-10-02T15:16:36.666Z,2.97
2022-10-02T15:20:59.542Z,3.45
2022-10-02T15:25:27.687Z,2.83
2022-10-02T15:29:53.611Z,3.13
2022-10-02T15:34:21.390Z,3.40
2022-10-02T15:38:53.773Z,3.65
2022-10-02T15:43:34.844Z,3.33
2022-10-02T15:48:21.214Z,2.83
2022-10-02T15:52:44.250Z,2.13
2022-10-02T15:57:22.843Z,2.43
2022-10-02T16:01:48.637Z,2.40
2022-10-02T16:06:13.869Z,2.47
2022-10-02T16:10:39.033Z,2.42
2022-10-02T16:15:04.183Z,2.53
2022-10-02T16:19:28.915Z,2.05
2022-10-02T16:24:09.412Z,2.45
2022-10-02T16:28:36.787Z,2.30
2022-10-02T16:33:19.483Z,2.42
2022-10-02T16:37:42.016Z,2.55
2022-10-02T16:42:03.222Z,2.33
2022-10-02T16:46:24.617Z,2.50
2022-10-02T16:50:54.261Z,2.70
2022-10-02T16:55:20.246Z,2.47
2022-10-02T16:59:44.881Z,3.30
2022-10-02T17:04:25.663Z,3.65
2022-10-02T17:08:44.509Z,4.57
2022-10-02T17:13:07.636Z,3.70
2022-10-02T17:17:27.569Z,2.70
2022-10-02T17:21:48.926Z,2.50
2022-10-02T17:26:08.829Z,3.00
2022-10-02T17:30:27.060Z,2.80
2022-10-02T17:34:49.223Z,3.10
2022-10-02T17:39:39.254Z,3.17
2022-10-02T17:44:01.589Z,2.93
2022-10-02T17:48:34.976Z,3.30
2022-10-02T17:53:16.835Z,3.60
2022-10-02T17:57:48.146Z,3.17
2022-10-02T18:02:14.776Z,3.50
2022-10-02T18:06:38.125Z,3.03
2022-10-02T18:11:04.151Z,3.00
2022-10-02T18:15:31.857Z,3.40
2022-10-02T18:19:56.809Z,3.38
2022-10-02T18:24:43.053Z,3.53
2022-10-02T18:29:31.902Z,3.10
2022-10-02T18:34:41.442Z,3.25
2022-10-02T18:39:00.993Z,3.00
2022-10-02T18:43:37.173Z,3.73
2022-10-02T18:48:03.139Z,3.20
2022-10-02T18:52:33.552Z,3.17
2022-10-02T18:56:56.630Z,2.73
2022-10-02T19:01:37.537Z,2.63
2022-10-02T19:05:57.149Z,3.15
2022-10-02T19:10:26.508Z,3.00
2022-10-02T19:14:45.633Z,2.97
2022-10-02T19:19:09.885Z,2.85
2022-10-02T19:23:32.879Z,2.80
2022-10-02T19:27:54.435Z,3.70
2022-10-02T19:32:18.411Z,3.40
2022-10-02T19:36:35.501Z,3.03
2022-10-02T19:40:54.449Z,3.40
2022-10-02T19:45:25.491Z,3.17
2022-10-02T19:49:41.533Z,3.00
2022-10-02T19:54:01.363Z,3.20
2022-10-02T19:58:22.393Z,3.30
2022-10-02T20:02:41.483Z,2.60
2022-10-02T20:06:59.095Z,3.30
2022-10-02T20:11:21.523Z,4.27
2022-10-02T20:16:04.894Z,4.00
2022-10-02T20:20:20.762Z,3.22
2022-10-02T20:24:42.821Z,3.37
2022-10-02T20:29:01.453Z,3.50
2022-10-02T20:33:24.678Z,3.05
2022-10-02T20:37:43.115Z,3.08
2022-10-02T20:42:00.736Z,2.63
2022-10-02T20:46:41.408Z,3.50
2022-10-02T20:51:06.433Z,2.70
2022-10-02T20:55:30.275Z,2.77
2022-10-02T21:00:15.655Z,2.50
2022-10-02T21:04:54.627Z,3.42
2022-10-02T21:09:42.479Z,2.53
2022-10-02T21:14:45.665Z,2.80
2022-10-02T21:19:15.971Z,2.83
2022-10-02T21:23:58.202Z,3.10
2022-10-02T21:28:41.334Z,2.93
2022-10-02T21:33:06.564Z,2.78
2022-10-02T21:37:28.225Z,2.78
2022-10-02T21:42:36.623Z,2.90
2022-10-02T21:47:24.681Z,2.60
2022-10-02T21:52:18.172Z,2.50
2022-10-02T21:57:05.198Z,3.90
2022-10-02T22:02:08.339Z,2.58
2022-10-02T22:06:38.480Z,2.47
2022-10-02T22:11:02.839Z,2.42
2022-10-02T22:15:27.042Z,2.47
2022-10-02T22:19:59.370Z,2.70
2022-10-02T22:24:32.670Z,2.90
2022-10-02T22:28:49.738Z,2.73
2022-10-02T22:33:17.930Z,2.75
2022-10-02T22:37:55.077Z,3.03
2022-10-02T22:42:14.707Z,2.60
2022-10-02T22:46:41.213Z,2.60
2022-10-02T22:50:59.317Z,2.67
2022-10-02T22:55:19.253Z,2.42
2022-10-02T22:59:44.372Z,2.43
2022-10-02T23:04:04.721Z,2.63
2022-10-02T23:08:26.778Z,2.30
2022-10-02T23:12:50.740Z,2.30
2022-10-02T23:17:13.599Z,2.90
2022-10-02T23:21:33.993Z,3.05
2022-10-02T23:25:53.449Z,2.50
2022-10-02T23:30:12.547Z,2.50
2022-10-02T23:34:36.496Z,3.38
2022-10-02T23:38:56.513Z,2.70
2022-10-02T23:43:15.089Z,2.80
2022-10-02T23:47:41.544Z,2.50
2022-10-02T23:52:06.086Z,2.50
2022-10-02T23:56:47.120Z,2.47
